CheckWX is a tool to help pilots better visualize weather data.  It is not intended as a substitute for an official pre-flight weather briefing.

20:16:49 UTC

UBEE TAF
Yevlakh Airport
Yevlakh, Azerbaijan
TAF UBEE 251459Z 2515/2524 18006KT CAVOK

Jun-25@
15:00 UTC

Jun-25 @ 15:00 UTC

Jun-26@
00:00 UTC

Jun-26 @ 00:00 UTC

TAF UBEE 251459Z 2515/2524 18006KT CAVOK
Wind
  • 180° at 6 KTS
Conditions
No significant weather
Cloud Levels
  • No significant clouds